Time;durP1;ratioP1;P1;durP2;ratioP2;P2;SDS_P1;SDS_P2;PMS_P1;PMS_P2;Temp;Humidity;BMP_temperature;BMP_pressure;BME280_temperature;BME280_humidity;BME280_pressure;Samples;Min_cycle;Max_cycle;Signal;HPM_P1;HPM_P2
2022/04/20 00:01:08;;;;;;;4.73;3.60;;;4.80;74.20;;;;;;4826607;29;20222;-89
2022/04/20 00:03:33;;;;;;;7.77;3.60;;;4.70;74.80;;;;;;4810426;29;20204;-89
2022/04/20 00:05:59;;;;;;;5.50;3.50;;;4.70;75.20;;;;;;4810712;29;20212;-89
2022/04/20 00:08:24;;;;;;;6.47;3.53;;;4.70;75.50;;;;;;4810511;29;20210;-89
2022/04/20 00:10:50;;;;;;;5.87;3.70;;;4.60;75.80;;;;;;4826854;29;20191;-88
2022/04/20 00:13:15;;;;;;;4.43;3.70;;;4.60;75.90;;;;;;4810215;29;20294;-88
2022/04/20 00:15:41;;;;;;;7.60;3.77;;;4.70;76.00;;;;;;4810036;29;20211;-89
2022/04/20 00:18:06;;;;;;;5.57;3.67;;;4.70;76.00;;;;;;4810084;29;20185;-89
2022/04/20 00:20:32;;;;;;;8.43;3.83;;;4.70;76.00;;;;;;4826571;29;20177;-89
2022/04/20 00:22:57;;;;;;;6.07;3.57;;;4.70;75.90;;;;;;4809988;29;20188;-89
2022/04/20 00:25:23;;;;;;;5.17;3.70;;;4.70;75.80;;;;;;4809848;29;20212;-89
2022/04/20 00:27:49;;;;;;;5.83;3.93;;;4.70;76.00;;;;;;4809913;29;20197;-89
2022/04/20 00:30:14;;;;;;;5.23;4.07;;;4.70;76.10;;;;;;4809983;29;20570;-89
2022/04/20 00:32:40;;;;;;;6.40;3.50;;;4.70;76.00;;;;;;4826012;29;20188;-89
2022/04/20 00:35:07;;;;;;;5.17;3.40;;;4.60;76.10;;;;;;4809723;29;20746;-89
2022/04/20 00:37:34;;;;;;;7.33;4.20;;;4.50;76.50;;;;;;4809844;29;20249;-90
2022/04/20 00:40:01;;;;;;;8.07;3.97;;;4.40;76.70;;;;;;4809794;29;20195;-89
2022/04/20 00:42:28;;;;;;;8.77;5.30;;;4.30;77.10;;;;;;4809938;29;20180;-89
2022/04/20 00:44:54;;;;;;;8.47;4.07;;;4.10;77.50;;;;;;4826180;29;20245;-89
2022/04/20 00:47:20;;;;;;;9.23;4.20;;;3.90;78.20;;;;;;4809646;29;20188;-89
2022/04/20 00:49:47;;;;;;;4.80;3.73;;;3.80;78.60;;;;;;4809545;29;20184;-88
2022/04/20 00:52:12;;;;;;;5.90;4.17;;;3.70;79.00;;;;;;4809336;29;20195;-89
2022/04/20 00:54:38;;;;;;;5.77;3.67;;;3.60;79.40;;;;;;4809390;29;20223;-89
2022/04/20 00:57:04;;;;;;;6.87;4.23;;;3.60;79.70;;;;;;4810278;29;20188;-88
2022/04/20 00:59:31;;;;;;;6.00;4.90;;;3.60;79.90;;;;;;4809437;29;20240;-88
2022/04/20 01:01:57;;;;;;;6.67;4.00;;;3.60;80.00;;;;;;4810078;29;20188;-88
2022/04/20 01:04:24;;;;;;;7.63;4.03;;;3.60;80.00;;;;;;4825460;29;20203;-88
2022/04/20 01:06:49;;;;;;;6.03;4.50;;;3.60;80.00;;;;;;4809145;29;20203;-88
2022/04/20 01:09:15;;;;;;;7.23;4.33;;;3.60;80.10;;;;;;4809416;29;20198;-89
2022/04/20 01:11:41;;;;;;;7.47;4.40;;;3.60;80.30;;;;;;4809220;29;20188;-89
2022/04/20 01:14:08;;;;;;;9.00;4.70;;;3.70;80.20;;;;;;4809057;29;20220;-89
2022/04/20 01:16:33;;;;;;;6.80;4.60;;;3.60;80.30;;;;;;4825500;29;20225;-89
2022/04/20 01:19:01;;;;;;;6.47;4.90;;;3.70;80.40;;;;;;4825329;29;20191;-88
2022/04/20 01:21:27;;;;;;;8.90;4.57;;;3.80;80.20;;;;;;4809059;29;20571;-88
2022/04/20 01:23:53;;;;;;;6.17;4.30;;;3.80;80.00;;;;;;4809204;29;20270;-88
2022/04/20 01:26:18;;;;;;;4.87;4.40;;;3.80;80.10;;;;;;4809057;29;20251;-88
2022/04/20 01:28:45;;;;;;;5.73;4.20;;;3.70;80.20;;;;;;4809026;29;20195;-88
2022/04/20 01:31:15;;;;;;;7.00;4.33;;;3.60;80.30;;;;;;4809491;29;20220;-89
2022/04/20 01:33:45;;;;;;;6.00;4.27;;;3.60;80.50;;;;;;4808984;29;20578;-88
2022/04/20 01:36:11;;;;;;;8.37;4.87;;;3.50;80.60;;;;;;4808787;29;20569;-89
2022/04/20 01:38:37;;;;;;;6.47;4.00;;;3.40;80.80;;;;;;4808792;29;20190;-88
2022/04/20 01:41:03;;;;;;;4.87;4.07;;;3.30;81.20;;;;;;4808806;29;20201;-88
2022/04/20 01:43:29;;;;;;;6.53;5.30;;;3.20;81.40;;;;;;4809504;29;20286;-89
2022/04/20 01:45:55;;;;;;;6.03;4.93;;;3.10;81.80;;;;;;4808710;29;20293;-89
2022/04/20 01:48:20;;;;;;;7.80;4.90;;;3.10;82.10;;;;;;4808698;29;20247;-89
2022/04/20 01:53:32;;;;;;;7.90;4.70;;;3.00;82.50;;;;;;4824965;29;20754;-89
2022/04/20 01:56:03;;;;;;;7.77;4.77;;;3.00;82.80;;;;;;4824917;29;20207;-89
2022/04/20 01:58:28;;;;;;;6.37;5.23;;;3.00;82.90;;;;;;4808570;29;20733;-89
2022/04/20 02:00:54;;;;;;;7.20;4.67;;;3.00;83.00;;;;;;4808579;29;20254;-89
2022/04/20 02:03:20;;;;;;;7.27;5.10;;;3.00;83.10;;;;;;4808430;29;20217;-89
2022/04/20 02:05:45;;;;;;;7.33;5.10;;;3.00;83.20;;;;;;4808315;29;20707;-89
2022/04/20 02:08:11;;;;;;;7.33;4.73;;;3.00;83.20;;;;;;4808352;29;20201;-89
2022/04/20 02:10:36;;;;;;;8.23;5.30;;;3.10;83.20;;;;;;4808307;29;20181;-89
2022/04/20 02:13:02;;;;;;;6.53;4.73;;;3.10;83.10;;;;;;4808195;29;20213;-89
2022/04/20 02:15:28;;;;;;;9.53;4.70;;;3.20;83.00;;;;;;4808217;29;20202;-89
2022/04/20 02:17:54;;;;;;;7.00;4.83;;;3.20;82.90;;;;;;4808312;29;20194;-89
2022/04/20 02:20:20;;;;;;;7.00;4.97;;;3.30;82.70;;;;;;4824552;29;20671;-89
2022/04/20 02:22:45;;;;;;;6.23;4.93;;;3.30;82.50;;;;;;4808274;29;20179;-89
2022/04/20 02:25:11;;;;;;;8.33;4.83;;;3.30;82.30;;;;;;4808088;29;20260;-89
2022/04/20 02:27:37;;;;;;;9.07;4.57;;;3.30;82.30;;;;;;4808057;29;20649;-89
2022/04/20 02:30:04;;;;;;;4.53;4.10;;;3.20;82.20;;;;;;4824446;29;20175;-89
2022/04/20 02:32:29;;;;;;;6.80;4.23;;;3.20;82.20;;;;;;4807975;29;20180;-89
2022/04/20 02:34:55;;;;;;;6.17;4.70;;;3.10;82.30;;;;;;4808094;29;20732;-89
2022/04/20 02:37:22;;;;;;;6.10;4.50;;;3.00;82.40;;;;;;4808540;29;20275;-89
2022/04/20 02:39:48;;;;;;;6.43;4.50;;;3.00;82.80;;;;;;4807898;29;20183;-89
2022/04/20 02:42:15;;;;;;;7.53;4.47;;;3.00;82.90;;;;;;4824407;29;20182;-89
2022/04/20 02:44:42;;;;;;;10.57;6.70;;;2.80;83.00;;;;;;4808303;29;20687;-89
2022/04/20 02:47:08;;;;;;;7.00;4.83;;;2.80;83.30;;;;;;4824225;29;20184;-89
2022/04/20 02:49:35;;;;;;;11.23;5.37;;;2.80;83.40;;;;;;4807788;29;20192;-88
2022/04/20 02:52:00;;;;;;;8.20;4.60;;;2.80;83.50;;;;;;4807862;29;20188;-88
2022/04/20 02:54:27;;;;;;;5.90;4.77;;;2.70;83.70;;;;;;4824439;29;20216;-88
2022/04/20 02:56:53;;;;;;;6.47;5.20;;;2.70;83.90;;;;;;4807829;29;20657;-89
2022/04/20 02:59:18;;;;;;;5.20;4.67;;;2.60;84.00;;;;;;4807763;29;20192;-88
2022/04/20 03:01:44;;;;;;;9.17;5.77;;;2.60;84.20;;;;;;4807776;29;20195;-89
2022/04/20 03:04:10;;;;;;;6.83;4.53;;;2.50;84.30;;;;;;4807721;29;20203;-88
2022/04/20 03:06:35;;;;;;;6.70;5.23;;;2.50;84.40;;;;;;4824060;29;20558;-88
2022/04/20 03:09:02;;;;;;;8.20;5.03;;;2.50;84.50;;;;;;4808137;29;20227;-89
2022/04/20 03:11:28;;;;;;;7.33;5.10;;;2.50;84.60;;;;;;4807788;29;20198;-89
2022/04/20 03:13:54;;;;;;;8.97;4.90;;;2.50;84.80;;;;;;4823980;29;20209;-89
2022/04/20 03:16:19;;;;;;;9.27;5.47;;;2.60;85.00;;;;;;4809209;29;20185;-89
2022/04/20 03:18:45;;;;;;;11.33;5.33;;;2.70;85.00;;;;;;4811079;29;20183;-88
2022/04/20 03:21:10;;;;;;;8.03;5.13;;;2.80;84.90;;;;;;4811227;29;20195;-89
2022/04/20 03:23:36;;;;;;;9.17;5.27;;;2.80;84.80;;;;;;4811056;29;20199;-89
2022/04/20 03:26:03;;;;;;;7.77;5.30;;;2.80;84.70;;;;;;4811286;29;20216;-89
2022/04/20 03:28:29;;;;;;;8.83;5.30;;;2.90;84.50;;;;;;4811757;29;20609;-89
2022/04/20 03:30:54;;;;;;;10.03;6.37;;;2.90;84.40;;;;;;4810877;29;20191;-88
2022/04/20 03:33:21;;;;;;;8.20;5.47;;;2.90;84.30;;;;;;4810858;29;20207;-89
2022/04/20 03:35:47;;;;;;;6.47;5.03;;;3.00;84.10;;;;;;4811196;29;20248;-88
2022/04/20 03:38:12;;;;;;;12.60;4.97;;;2.90;83.90;;;;;;4826978;29;20187;-89
2022/04/20 03:40:38;;;;;;;6.87;5.03;;;2.90;83.60;;;;;;4810829;29;20219;-89
2022/04/20 03:43:04;;;;;;;6.53;4.73;;;2.90;83.40;;;;;;4812430;29;20254;-89
2022/04/20 03:45:30;;;;;;;6.30;4.70;;;2.80;83.50;;;;;;4811390;29;20210;-89
2022/04/20 03:47:56;;;;;;;7.07;5.00;;;2.80;83.50;;;;;;4810647;29;20184;-89
2022/04/20 03:50:21;;;;;;;5.70;4.53;;;2.80;83.50;;;;;;4810546;29;20209;-89
2022/04/20 03:52:47;;;;;;;5.37;4.87;;;2.90;83.50;;;;;;4810754;29;20613;-89
2022/04/20 03:55:13;;;;;;;6.03;4.70;;;2.90;83.40;;;;;;4810650;29;20218;-88
2022/04/20 03:57:39;;;;;;;6.87;5.33;;;2.90;83.30;;;;;;4810545;29;20191;-88
2022/04/20 04:00:06;;;;;;;6.20;4.63;;;2.90;83.30;;;;;;4810450;29;20187;-88
2022/04/20 04:02:31;;;;;;;6.67;5.07;;;2.90;83.00;;;;;;4826580;29;20176;-88
2022/04/20 04:04:57;;;;;;;5.67;4.40;;;2.90;83.00;;;;;;4810378;29;20218;-89
2022/04/20 04:07:23;;;;;;;6.73;4.50;;;2.80;82.90;;;;;;4826666;29;20213;-89
2022/04/20 04:09:48;;;;;;;9.30;4.33;;;2.80;82.90;;;;;;4810474;29;20640;-89
2022/04/20 04:12:14;;;;;;;7.93;4.50;;;2.80;82.70;;;;;;4811126;29;20666;-89
2022/04/20 04:14:40;;;;;;;14.27;5.60;;;2.80;82.60;;;;;;4826245;29;20269;-89
2022/04/20 04:17:06;;;;;;;8.43;5.40;;;2.90;82.30;;;;;;4810209;29;20274;-89
2022/04/20 04:19:33;;;;;;;17.57;4.70;;;2.90;81.90;;;;;;4831754;24;20804;-90
2022/04/20 04:22:00;;;;;;;10.27;4.90;;;3.00;81.70;;;;;;4826370;29;20180;-91
2022/04/20 04:24:34;;;;;;;10.87;5.27;;;3.00;81.60;;;;;;4809966;29;20191;-90
2022/04/20 04:27:01;;;;;;;6.57;4.50;;;3.00;81.80;;;;;;4809946;29;20191;-90
2022/04/20 04:29:28;;;;;;;7.27;5.40;;;3.10;82.10;;;;;;4809884;29;20229;-93
2022/04/20 04:31:54;;;;;;;7.37;5.20;;;3.10;82.30;;;;;;4809993;29;20195;-92
2022/04/20 04:34:20;;;;;;;11.87;5.03;;;3.10;82.50;;;;;;4809796;29;20204;-91
2022/04/20 04:36:45;;;;;;;10.77;4.87;;;3.10;82.80;;;;;;4809819;29;20585;-91
2022/04/20 04:39:11;;;;;;;6.73;5.17;;;3.10;82.90;;;;;;4809844;29;20202;-91
2022/04/20 04:41:36;;;;;;;10.53;5.10;;;3.20;82.80;;;;;;4810836;29;20606;-91
2022/04/20 04:44:02;;;;;;;7.93;5.67;;;3.20;82.50;;;;;;4810602;29;20206;-90
2022/04/20 04:49:11;;;;;;;10.00;5.73;;;3.30;82.40;;;;;;4826359;29;20261;-92
2022/04/20 04:51:37;;;;;;;6.17;5.10;;;3.30;82.30;;;;;;4810043;29;20186;-90
2022/04/20 04:54:02;;;;;;;6.17;4.80;;;3.20;82.40;;;;;;4809814;29;20214;-90
2022/04/20 04:56:28;;;;;;;6.30;5.13;;;3.20;82.50;;;;;;4809537;29;20192;-90
2022/04/20 04:58:53;;;;;;;6.93;5.00;;;3.30;82.70;;;;;;4809449;29;20211;-91
2022/04/20 05:01:19;;;;;;;5.83;5.30;;;3.30;82.90;;;;;;4809448;29;20290;-90
2022/04/20 05:03:44;;;;;;;9.10;5.23;;;3.40;83.20;;;;;;4809382;29;20617;-90
2022/04/20 05:06:10;;;;;;;9.07;5.80;;;3.50;83.50;;;;;;4809487;29;20234;-91
2022/04/20 05:08:36;;;;;;;8.77;6.37;;;3.60;83.70;;;;;;4825933;29;20266;-90
2022/04/20 05:11:01;;;;;;;8.87;5.37;;;3.70;83.70;;;;;;4809209;29;20194;-91
2022/04/20 05:13:27;;;;;;;8.07;5.50;;;3.80;83.70;;;;;;4809444;29;20260;-91
2022/04/20 05:15:52;;;;;;;8.43;5.40;;;3.80;83.80;;;;;;4809475;29;20216;-90
2022/04/20 05:18:18;;;;;;;9.10;5.97;;;3.80;83.90;;;;;;4809178;29;20263;-91
2022/04/20 05:20:44;;;;;;;11.40;5.87;;;3.80;84.10;;;;;;4809117;29;20562;-90
2022/04/20 05:23:09;;;;;;;10.23;6.57;;;3.80;84.30;;;;;;4809184;29;20201;-90
2022/04/20 05:25:35;;;;;;;11.83;6.63;;;3.80;84.40;;;;;;4809603;29;20191;-91
2022/04/20 05:28:01;;;;;;;12.40;6.63;;;3.80;84.50;;;;;;4809043;29;20243;-90
2022/04/20 05:30:26;;;;;;;9.80;6.53;;;3.80;84.70;;;;;;4809136;29;20208;-91
2022/04/20 05:32:52;;;;;;;20.13;6.87;;;3.80;84.70;;;;;;4825481;29;20194;-91
2022/04/20 05:35:17;;;;;;;14.00;6.40;;;3.90;84.70;;;;;;4808948;29;20180;-91
2022/04/20 05:43:11;;;;;;;12.40;7.07;;;4.20;84.30;;;;;;4825722;29;20174;-89
2022/04/20 05:45:36;;;;;;;8.93;6.27;;;4.20;84.00;;;;;;4808792;29;20184;-91
2022/04/20 05:48:03;;;;;;;9.47;7.63;;;4.30;84.00;;;;;;4808822;29;20561;-91
2022/04/20 05:50:29;;;;;;;10.00;7.13;;;4.50;83.80;;;;;;4808898;29;20207;-91
2022/04/20 05:52:54;;;;;;;9.47;6.97;;;4.60;83.60;;;;;;4808583;29;20257;-91
2022/04/20 05:55:20;;;;;;;16.13;6.77;;;4.80;83.40;;;;;;4808829;29;20229;-90
2022/04/20 05:57:48;;;;;;;10.60;7.33;;;4.90;83.00;;;;;;4808541;29;20187;-91
2022/04/20 06:00:15;;;;;;;11.17;7.20;;;5.00;82.80;;;;;;4808650;29;20204;-89
2022/04/20 06:02:40;;;;;;;8.53;7.27;;;5.20;82.80;;;;;;4808662;29;20549;-90
2022/04/20 06:05:07;;;;;;;12.03;7.70;;;5.40;82.90;;;;;;4808520;29;20184;-91
2022/04/20 06:07:33;;;;;;;9.17;6.77;;;5.70;82.80;;;;;;4808391;29;20185;-91
2022/04/20 06:09:59;;;;;;;12.67;7.60;;;5.90;82.50;;;;;;4825039;29;20204;-91
2022/04/20 06:12:24;;;;;;;8.73;7.07;;;6.10;82.10;;;;;;4808781;29;20211;-90
2022/04/20 06:14:50;;;;;;;8.13;6.63;;;6.30;80.60;;;;;;4809393;29;20676;-91
2022/04/20 06:17:16;;;;;;;11.10;7.67;;;6.50;80.80;;;;;;4808780;29;20191;-91
2022/04/20 06:19:41;;;;;;;7.77;6.97;;;6.70;80.50;;;;;;4824426;29;20244;-91
2022/04/20 06:22:07;;;;;;;8.90;6.00;;;6.90;79.10;;;;;;4808353;29;20217;-90
2022/04/20 06:24:32;;;;;;;11.57;6.77;;;7.30;77.80;;;;;;4808257;29;20564;-90
2022/04/20 06:26:58;;;;;;;8.60;6.37;;;7.50;74.90;;;;;;4808501;29;20269;-90
2022/04/20 06:29:24;;;;;;;7.20;6.10;;;7.60;73.70;;;;;;4808046;29;20694;-91
2022/04/20 06:31:51;;;;;;;7.40;5.67;;;7.70;72.90;;;;;;4808068;29;20762;-91
2022/04/20 06:34:17;;;;;;;7.63;5.83;;;7.80;71.60;;;;;;4807994;29;20717;-90
2022/04/20 06:36:43;;;;;;;8.83;5.57;;;8.00;72.00;;;;;;4807996;29;20662;-91
2022/04/20 06:39:08;;;;;;;8.90;6.03;;;8.00;70.20;;;;;;4808059;29;20207;-90
2022/04/20 06:41:34;;;;;;;8.17;5.47;;;8.10;69.50;;;;;;4824658;29;20215;-90
2022/04/20 06:43:59;;;;;;;8.30;5.40;;;8.20;70.10;;;;;;4809004;29;20527;-90
2022/04/20 06:46:25;;;;;;;9.03;4.90;;;8.30;69.60;;;;;;4808559;29;20308;-89
2022/04/20 06:48:51;;;;;;;7.33;5.07;;;8.40;68.20;;;;;;4808761;29;20298;-91
2022/04/20 06:51:16;;;;;;;7.17;4.90;;;8.50;68.60;;;;;;4810559;29;20240;-91
2022/04/20 06:59:10;;;;;;;9.27;4.33;;;8.70;67.10;;;;;;4828454;29;20702;-90
2022/04/20 07:01:36;;;;;;;7.97;5.37;;;8.70;65.50;;;;;;4828253;29;20184;-91
2022/04/20 07:04:01;;;;;;;6.70;5.20;;;8.90;66.70;;;;;;4811462;29;20188;-92
2022/04/20 07:06:30;;;;;;;7.07;4.80;;;9.00;65.70;;;;;;4811413;29;20682;-91
2022/04/20 07:08:56;;;;;;;5.27;4.53;;;9.00;65.10;;;;;;4827807;29;20216;-91
2022/04/20 07:11:21;;;;;;;5.47;4.10;;;9.10;63.60;;;;;;4811646;29;20223;-91
2022/04/20 07:13:47;;;;;;;8.40;4.87;;;9.20;65.70;;;;;;4811363;29;20203;-90
2022/04/20 07:16:13;;;;;;;7.17;4.50;;;9.30;63.40;;;;;;4812190;29;20207;-91
2022/04/20 07:18:39;;;;;;;5.87;4.33;;;9.40;62.30;;;;;;4811740;29;20208;-90
2022/04/20 07:21:04;;;;;;;6.20;3.90;;;9.40;62.00;;;;;;4812196;29;20695;-90
2022/04/20 07:23:31;;;;;;;7.87;4.90;;;9.60;62.20;;;;;;4811384;29;20179;-90
2022/04/20 07:25:57;;;;;;;7.17;4.43;;;9.60;62.10;;;;;;4811368;29;20637;-90
2022/04/20 07:28:22;;;;;;;5.47;4.03;;;9.70;61.60;;;;;;4827654;29;20232;-90
2022/04/20 07:30:48;;;;;;;5.93;4.03;;;9.80;61.80;;;;;;4811061;29;20240;-91
2022/04/20 07:33:15;;;;;;;4.77;3.70;;;10.00;62.60;;;;;;4811167;29;20204;-90
2022/04/20 07:35:44;;;;;;;5.90;3.77;;;10.00;59.60;;;;;;4811138;29;20668;-92
2022/04/20 07:38:10;;;;;;;5.90;3.93;;;10.10;59.50;;;;;;4811383;29;20317;-91
2022/04/20 07:40:35;;;;;;;4.30;3.30;;;10.20;59.00;;;;;;4811575;29;20692;-91
2022/04/20 07:43:01;;;;;;;4.00;3.33;;;10.30;57.70;;;;;;4811580;29;20194;-89
2022/04/20 07:45:27;;;;;;;5.60;3.83;;;10.50;58.00;;;;;;4812170;29;20187;-90
2022/04/20 07:47:56;;;;;;;5.30;3.67;;;10.60;57.30;;;;;;4811535;29;20248;-91
2022/04/20 07:50:25;;;;;;;4.47;3.20;;;10.70;55.30;;;;;;4826968;29;20204;-90
2022/04/20 07:52:56;;;;;;;4.50;3.50;;;10.70;55.50;;;;;;4810998;29;20188;-92
2022/04/20 07:55:23;;;;;;;6.93;3.27;;;10.70;52.30;;;;;;4811737;29;20544;-91
2022/04/20 07:57:51;;;;;;;3.60;2.87;;;10.80;52.10;;;;;;4810707;29;20192;-92
2022/04/20 08:00:18;;;;;;;4.17;3.07;;;11.00;55.70;;;;;;4811174;29;20210;-91
2022/04/20 08:02:45;;;;;;;3.27;2.93;;;11.10;54.10;;;;;;4810299;29;20180;-90
2022/04/20 08:05:12;;;;;;;5.67;3.30;;;11.10;52.70;;;;;;4810412;29;20268;-91
2022/04/20 08:07:37;;;;;;;6.27;2.97;;;11.20;52.80;;;;;;4810429;29;20190;-89
2022/04/20 08:10:06;;;;;;;4.80;3.20;;;11.20;52.30;;;;;;4810362;29;20208;-89
2022/04/20 08:12:39;;;;;;;2.70;2.40;;;11.30;51.50;;;;;;4811145;29;20184;-89
2022/04/20 08:15:07;;;;;;;3.67;3.10;;;11.30;52.10;;;;;;4810339;29;20227;-90
2022/04/20 08:17:33;;;;;;;4.20;2.90;;;11.40;53.10;;;;;;4810321;29;20188;-91
2022/04/20 08:19:59;;;;;;;3.90;2.30;;;11.40;51.40;;;;;;4810136;29;20634;-90
2022/04/20 08:22:25;;;;;;;5.33;2.23;;;11.40;51.90;;;;;;4810363;29;20274;-90
2022/04/20 08:24:51;;;;;;;3.33;2.27;;;11.70;52.10;;;;;;4810377;29;20192;-90
2022/04/20 08:27:17;;;;;;;2.87;2.23;;;11.80;53.50;;;;;;4810138;29;20652;-90
2022/04/20 08:29:45;;;;;;;3.40;2.80;;;11.90;54.40;;;;;;4809944;29;20215;-90
2022/04/20 08:32:10;;;;;;;5.37;2.30;;;11.80;52.10;;;;;;4809956;29;20199;-90
2022/04/20 08:34:37;;;;;;;3.17;2.30;;;11.80;50.80;;;;;;4826245;29;20207;-90
2022/04/20 08:37:02;;;;;;;3.20;2.47;;;11.70;51.20;;;;;;4826469;29;20188;-91
2022/04/20 08:39:28;;;;;;;4.50;2.40;;;11.90;53.60;;;;;;4810033;29;20208;-91
2022/04/20 08:41:55;;;;;;;3.90;2.80;;;12.20;52.80;;;;;;4810304;29;20210;-90
2022/04/20 08:44:28;;;;;;;4.60;2.00;;;12.20;52.80;;;;;;4809711;29;20203;-90
2022/04/20 08:46:59;;;;;;;2.83;2.20;;;12.20;51.20;;;;;;4810026;29;20221;-90
2022/04/20 08:49:24;;;;;;;6.33;2.20;;;12.20;52.40;;;;;;4810291;29;20582;-88
2022/04/20 08:54:35;;;;;;;4.03;2.50;;;12.30;51.60;;;;;;4826423;29;20234;-90
2022/04/20 08:57:16;;;;;;;5.57;2.43;;;12.40;52.30;;;;;;4810263;29;20188;-90
2022/04/20 08:59:48;;;;;;;6.90;2.40;;;12.40;50.90;;;;;;4809803;29;20211;-90
2022/04/20 09:02:17;;;;;;;5.97;2.87;;;12.60;53.00;;;;;;4809529;29;20176;-90
2022/04/20 09:04:43;;;;;;;5.77;2.40;;;12.40;50.00;;;;;;4809515;29;20191;-90
2022/04/20 09:07:11;;;;;;;3.10;2.30;;;12.70;52.60;;;;;;4826034;29;20232;-91
2022/04/20 09:09:37;;;;;;;7.37;2.97;;;12.80;51.90;;;;;;4809283;29;20298;-90
2022/04/20 09:12:14;;;;;;;4.20;2.57;;;12.90;51.80;;;;;;4814379;29;20230;-92
2022/04/20 09:14:41;;;;;;;2.60;2.40;;;12.90;51.70;;;;;;4812774;29;20592;-91
2022/04/20 09:17:11;;;;;;;3.13;2.50;;;12.80;50.70;;;;;;4811303;29;20652;-91
2022/04/20 09:19:36;;;;;;;4.40;2.83;;;12.80;49.80;;;;;;4816191;29;20364;-91
2022/04/20 09:22:19;;;;;;;4.73;2.80;;;12.90;51.10;;;;;;4812427;29;20223;-91
2022/04/20 09:25:05;;;;;;;3.63;2.60;;;13.10;51.50;;;;;;4825906;29;20183;-89
2022/04/20 09:27:32;;;;;;;3.27;2.27;;;13.10;50.40;;;;;;4809909;29;20187;-91
2022/04/20 09:29:58;;;;;;;3.27;2.90;;;13.20;49.50;;;;;;4809319;29;20763;-88
2022/04/20 09:32:50;;;;;;;2.67;2.07;;;13.20;49.10;;;;;;4809812;29;20188;-90
2022/04/20 09:35:19;;;;;;;3.13;2.00;;;13.30;49.40;;;;;;4808576;29;20272;-91
2022/04/20 09:37:45;;;;;;;3.23;2.13;;;13.20;49.50;;;;;;4809629;29;20664;-91
2022/04/20 09:40:12;;;;;;;4.40;2.30;;;13.20;47.60;;;;;;4825604;29;20191;-91
2022/04/20 09:42:39;;;;;;;3.27;2.67;;;13.40;49.00;;;;;;4808837;29;20188;-91
2022/04/20 09:45:07;;;;;;;4.27;2.43;;;13.40;48.80;;;;;;4809184;29;20184;-91
2022/04/20 09:50:26;;;;;;;2.27;2.07;;;13.50;49.30;;;;;;4825832;29;20215;-88
2022/04/20 09:52:58;;;;;;;4.07;2.30;;;13.80;50.00;;;;;;4809016;29;20173;-90
2022/04/20 09:55:31;;;;;;;3.07;2.27;;;13.80;48.80;;;;;;4809162;29;20184;-90
2022/04/20 09:58:21;;;;;;;3.80;2.17;;;14.00;50.60;;;;;;4825252;29;20176;-90
2022/04/20 10:00:54;;;;;;;3.03;2.03;;;14.10;49.90;;;;;;4808777;29;20192;-90
2022/04/20 10:03:29;;;;;;;4.20;1.80;;;14.10;49.80;;;;;;4808981;29;20177;-90
2022/04/20 10:05:59;;;;;;;1.93;1.53;;;14.00;49.80;;;;;;4825472;29;20175;-91
2022/04/20 10:08:25;;;;;;;3.03;2.20;;;13.80;48.20;;;;;;4809364;29;20240;-90
2022/04/20 10:10:55;;;;;;;2.50;2.30;;;14.00;50.20;;;;;;4825194;29;20188;-90
2022/04/20 10:13:21;;;;;;;4.33;2.03;;;13.90;49.10;;;;;;4810763;29;20295;-92
2022/04/20 10:16:09;;;;;;;3.47;2.33;;;14.00;49.50;;;;;;4808819;29;20185;-88
2022/04/20 10:18:40;;;;;;;5.07;2.50;;;13.90;48.10;;;;;;4808277;29;20179;-89
2022/04/20 10:21:11;;;;;;;3.10;2.90;;;13.90;48.30;;;;;;4848374;23;20258;-91
2022/04/20 10:23:40;;;;;;;2.83;2.50;;;13.90;49.60;;;;;;4808446;29;20264;-88
2022/04/20 10:26:10;;;;;;;5.03;3.00;;;14.10;51.30;;;;;;4808128;29;20188;-89
2022/04/20 10:28:54;;;;;;;5.53;3.03;;;14.20;50.20;;;;;;4808102;29;20188;-89
2022/04/20 10:31:25;;;;;;;4.17;2.87;;;14.30;50.20;;;;;;4808067;29;20204;-89
2022/04/20 10:33:51;;;;;;;2.90;2.40;;;14.20;48.60;;;;;;4807988;29;20206;-89
2022/04/20 10:36:26;;;;;;;3.13;2.40;;;14.30;48.90;;;;;;4824495;29;20666;-89
2022/04/20 10:39:22;;;;;;;2.73;2.47;;;14.30;51.40;;;;;;4808175;29;20259;-89
2022/04/20 10:45:03;;;;;;;3.50;2.33;;;14.70;48.10;;;;;;4824513;29;20659;-89
2022/04/20 10:47:55;;;;;;;2.87;2.20;;;14.50;47.40;;;;;;4808057;29;20176;-88
2022/04/20 10:50:22;;;;;;;3.13;2.30;;;14.70;49.00;;;;;;4807712;29;20220;-89
2022/04/20 10:52:52;;;;;;;2.87;2.33;;;14.70;48.10;;;;;;4824250;29;20176;-89
2022/04/20 10:55:24;;;;;;;2.97;2.40;;;14.70;49.50;;;;;;4808031;29;20168;-89
2022/04/20 10:57:54;;;;;;;3.13;2.50;;;14.90;50.50;;;;;;4807906;29;20164;-90
2022/04/20 11:00:20;;;;;;;3.87;2.50;;;14.70;47.90;;;;;;4808474;29;20576;-89
2022/04/20 11:03:01;;;;;;;2.60;2.40;;;14.80;49.90;;;;;;4807887;29;20184;-89
2022/04/20 11:05:26;;;;;;;2.80;2.50;;;14.90;47.30;;;;;;4807920;29;20180;-89
2022/04/20 11:08:04;;;;;;;3.70;2.50;;;15.00;48.40;;;;;;4824141;29;20686;-89
2022/04/20 11:10:31;;;;;;;4.47;2.20;;;14.80;48.30;;;;;;4807638;29;20211;-89
2022/04/20 11:19:06;;;;;;;6.07;2.33;;;14.90;46.80;;;;;;4824098;29;20251;-89
2022/04/20 11:21:33;;;;;;;2.80;2.53;;;15.00;48.30;;;;;;4807681;29;20245;-88
2022/04/20 11:24:03;;;;;;;3.50;2.10;;;14.90;47.40;;;;;;4824008;29;20554;-89
2022/04/20 11:26:35;;;;;;;3.50;2.70;;;15.10;47.90;;;;;;4823930;29;20218;-88
2022/04/20 11:29:10;;;;;;;5.43;2.30;;;15.00;47.90;;;;;;4824258;29;20161;-88
2022/04/20 11:31:42;;;;;;;5.83;2.20;;;15.10;48.80;;;;;;4807571;29;20256;-89
2022/04/20 11:34:09;;;;;;;4.10;2.20;;;15.20;47.30;;;;;;4807461;29;20201;-89
2022/04/20 11:36:40;;;;;;;10.80;2.60;;;15.20;46.80;;;;;;4807920;29;20602;-89
2022/04/20 11:39:06;;;;;;;2.73;2.20;;;15.50;48.40;;;;;;4810756;29;20191;-89
2022/04/20 11:41:35;;;;;;;3.13;2.40;;;15.30;47.10;;;;;;4810800;29;20652;-88
2022/04/20 11:44:02;;;;;;;3.20;2.53;;;15.30;48.60;;;;;;4826997;29;20259;-89
2022/04/20 11:46:28;;;;;;;4.40;2.50;;;15.40;47.20;;;;;;4810777;29;20184;-88
2022/04/20 11:48:54;;;;;;;9.13;2.70;;;15.30;47.60;;;;;;4826817;29;20196;-88
2022/04/20 11:51:28;;;;;;;3.27;2.20;;;15.30;47.30;;;;;;4827028;29;20226;-89
2022/04/20 11:53:55;;;;;;;2.63;2.03;;;15.40;47.30;;;;;;4810536;29;20207;-89
2022/04/20 11:56:40;;;;;;;2.30;2.10;;;15.30;46.60;;;;;;4810580;29;20204;-89
2022/04/20 11:59:08;;;;;;;2.40;2.20;;;15.60;46.20;;;;;;4811139;29;20169;-88
2022/04/20 12:01:36;;;;;;;3.93;1.80;;;15.70;46.50;;;;;;4810460;29;20271;-88
2022/04/20 12:04:10;;;;;;;5.87;2.80;;;15.60;46.60;;;;;;4810413;29;20202;-89
2022/04/20 12:06:36;;;;;;;2.73;2.47;;;15.50;47.10;;;;;;4826702;29;20250;-88
2022/04/20 12:09:02;;;;;;;2.40;2.20;;;15.60;46.90;;;;;;4810235;29;20212;-89
2022/04/20 12:11:32;;;;;;;4.50;2.33;;;15.70;45.50;;;;;;4810390;29;20192;-89
2022/04/20 12:13:58;;;;;;;3.30;2.47;;;15.70;48.10;;;;;;4826378;29;20294;-89
2022/04/20 12:16:24;;;;;;;2.47;2.23;;;15.70;48.30;;;;;;4826390;29;20237;-88
2022/04/20 12:18:51;;;;;;;4.73;2.30;;;15.80;47.60;;;;;;4810038;29;20656;-89
2022/04/20 12:21:42;;;;;;;3.30;2.33;;;15.90;46.60;;;;;;4810038;29;20219;-88
2022/04/20 12:24:27;;;;;;;2.67;2.10;;;15.80;47.10;;;;;;4826318;29;20168;-88
2022/04/20 12:26:54;;;;;;;2.37;2.00;;;15.90;47.30;;;;;;4810089;29;20177;-88
2022/04/20 12:29:22;;;;;;;2.77;2.10;;;16.10;44.70;;;;;;4809881;29;20260;-88
2022/04/20 12:31:50;;;;;;;3.50;2.20;;;16.00;46.80;;;;;;4826215;29;20180;-89
2022/04/20 12:34:17;;;;;;;3.70;2.30;;;16.00;45.80;;;;;;4826011;29;20683;-89
2022/04/20 12:36:51;;;;;;;3.23;2.80;;;15.90;45.10;;;;;;4809881;29;20622;-88
2022/04/20 12:39:26;;;;;;;3.00;2.40;;;16.00;44.50;;;;;;4809866;29;20190;-88
2022/04/20 12:41:57;;;;;;;3.07;2.40;;;16.00;46.20;;;;;;4809716;29;20211;-87
2022/04/20 12:44:35;;;;;;;2.75;2.53;;;16.20;46.00;;;;;;4826414;29;20180;-88
2022/04/20 12:47:16;;;;;;;3.67;2.65;;;16.30;48.10;;;;;;4809786;29;20212;-89
2022/04/20 12:49:45;;;;;;;4.00;2.53;;;16.30;44.40;;;;;;4809649;29;20239;-88
2022/04/20 12:52:22;;;;;;;5.22;2.53;;;16.30;46.70;;;;;;4809711;29;20198;-88
2022/04/20 12:55:06;;;;;;;3.53;2.22;;;16.20;45.10;;;;;;4809590;29;20215;-89
2022/04/20 13:03:08;;;;;;;2.90;2.37;;;16.10;45.80;;;;;;4826366;29;20178;-89
2022/04/20 13:05:38;;;;;;;3.85;2.90;;;16.00;45.30;;;;;;4809398;29;20184;-88
2022/04/20 13:08:05;;;;;;;3.30;2.70;;;16.20;46.40;;;;;;4825917;29;20264;-89
2022/04/20 13:10:35;;;;;;;3.50;2.20;;;16.30;46.90;;;;;;4809314;29;20208;-89
2022/04/20 13:13:01;;;;;;;8.40;2.20;;;16.40;43.10;;;;;;4809563;29;20700;-88
2022/04/20 13:15:29;;;;;;;5.32;2.45;;;16.60;45.10;;;;;;4809151;29;20216;-88
2022/04/20 13:17:56;;;;;;;2.47;2.28;;;16.50;45.70;;;;;;4809210;29;20184;-89
2022/04/20 13:20:22;;;;;;;2.92;2.20;;;16.40;45.20;;;;;;4808993;29;20220;-89
2022/04/20 13:22:48;;;;;;;4.28;2.50;;;16.60;46.20;;;;;;4825414;29;20309;-89
2022/04/20 13:27:57;;;;;;;3.40;2.13;;;16.50;43.10;;;;;;4825660;29;20312;-89
2022/04/20 13:30:24;;;;;;;8.02;2.90;;;16.40;45.20;;;;;;4825292;29;20287;-89
2022/04/20 13:32:51;;;;;;;2.50;2.05;;;16.50;46.00;;;;;;4825264;29;20183;-89
2022/04/20 13:35:17;;;;;;;2.95;2.55;;;16.60;44.30;;;;;;4808918;29;20248;-90